10°C Temp
5°C Dewpoint
71% Humidity
Temperature
3 KM/H
2 MPH
2 KTS
70°
East North
East

Wind Speed
Clear
Conditions
Pressure 1026.92 (hPa) - 30.32 (in)
Visibility 6.2 (mi) - 10.0 (km)

Current Conditions
LGAV
Location 12(km)
Metar :LGAV 221520Z 07002KT CAVOK 10/05 Q1027 NOSIG
Wed 22nd January 17:20 pm

Airport
  Metar Aviation API Data Provided by https://www.checkwx.com/ PHP scripts by weather34.com ©2020